»·PEaware :: AAL130 KSNA-KSBP

AAL130 :: KSNA-KSBP

FLIGHT INFORMATION

Flight Status: Arrived
Operator:
American Airlines
More flights by this operator :: More flights under this callsign
Pilot: Tanner C. (11250)
Aircraft: BOEING 737-800
(B738)
More flights by this aircraft type
Origin: KSNA John Wayne-Orange Co
United States
Destination: KSBP San Luis Co Regl
United States
More flights between these airports :: More routes between these airports
Route: +HHERO2 IKAYE RZS CADAB
File this flight plan on PilotEdge
Remarks:
Altitude:
(Current/Filed)
18,000ft
Speed:
(Current/Filed)
400kts
Departed: 06-Jun-18 07:47 PM
Arrived: 06-Jun-18 08:23 PM
Distance/Time
Traveled:
166nm/0:36
Distance/Time
To Go:
Arrived

Flight Plot

Page will automatically refresh every two minutes.

Flight plan parsing failed; only flown route is shown


Map Options




Map Legend


Flown Route
Filed Route
Departure Airport
Arrival Airport
Navaid (VOR, NDB)
Fix

Horizontal Profiles

Position Reports

Time Latitude Longitude Heading Altitude Ground
Speed
06-Jun-18 19:33 33.679335 -117.862354 116 64ft 0kts
06-Jun-18 19:34 33.679335 -117.862354 116 64ft 0kts
06-Jun-18 19:35 33.679335 -117.862354 116 64ft 0kts
06-Jun-18 19:36 33.679335 -117.862354 116 64ft 0kts
06-Jun-18 19:37 33.679335 -117.862354 116 64ft 0kts
06-Jun-18 19:38 33.679335 -117.862354 116 64ft 0kts
06-Jun-18 19:39 33.679335 -117.862354 116 64ft 0kts
06-Jun-18 19:40 33.679335 -117.862354 116 64ft 0kts
06-Jun-18 19:41 33.679335 -117.862354 116 64ft 0kts
06-Jun-18 19:42 33.679335 -117.862354 116 64ft 0kts
06-Jun-18 19:43 33.679335 -117.862354 116 64ft 0kts
06-Jun-18 19:44 33.679336 -117.862355 116 64ft 0kts
06-Jun-18 19:45 33.679660 -117.862941 26 64ft 4kts
06-Jun-18 19:46 33.680600 -117.862970 295 64ft 8kts
06-Jun-18 19:47 33.677024 -117.867987 207 64ft 88kts
06-Jun-18 19:48 33.635555 -117.886256 194 1637ft 196kts
06-Jun-18 19:49 33.575537 -117.902398 194 4427ft 237kts
06-Jun-18 19:50 33.519112 -117.953065 225 7941ft 277kts
06-Jun-18 19:51 33.467477 -118.019473 242 8674ft 283kts
06-Jun-18 19:52 33.431188 -118.098038 240 10748ft 299kts
06-Jun-18 19:53 33.413998 -118.191427 282 14192ft 323kts
06-Jun-18 19:54 33.435121 -118.288566 281 15979ft 325kts
06-Jun-18 19:55 33.477440 -118.393965 296 16515ft 390kts
06-Jun-18 19:56 33.532764 -118.503919 312 19584ft 415kts
06-Jun-18 19:57 33.630274 -118.582432 322 19937ft 435kts
06-Jun-18 19:58 33.725166 -118.660453 321 19943ft 434kts
06-Jun-18 19:59 33.823963 -118.742686 321 19942ft 434kts
06-Jun-18 20:00 33.922775 -118.825428 321 19942ft 434kts
06-Jun-18 20:01 34.021273 -118.908262 321 19942ft 434kts
06-Jun-18 20:02 34.101412 -118.975883 321 19942ft 434kts
06-Jun-18 20:03 34.177099 -119.075668 297 19940ft 424kts
06-Jun-18 20:04 34.234134 -119.195518 297 19938ft 424kts
06-Jun-18 20:05 34.288507 -119.309282 297 19938ft 422kts
06-Jun-18 20:06 34.347231 -119.431715 297 19937ft 423kts
06-Jun-18 20:07 34.404497 -119.550830 297 19937ft 422kts
06-Jun-18 20:08 34.454922 -119.655533 297 19910ft 423kts
06-Jun-18 20:09 34.504115 -119.757385 299 19906ft 414kts
06-Jun-18 20:10 34.581824 -119.850167 314 18714ft 389kts
06-Jun-18 20:11 34.659023 -119.934339 315 16485ft 366kts
06-Jun-18 20:12 34.732944 -120.015277 315 14253ft 362kts
06-Jun-18 20:13 34.805702 -120.096865 316 11842ft 371kts
06-Jun-18 20:14 34.879642 -120.177353 316 9619ft 353kts
06-Jun-18 20:15 34.944019 -120.247784 316 8986ft 294kts
06-Jun-18 20:16 35.000503 -120.309834 316 8883ft 272kts
06-Jun-18 20:17 35.058663 -120.373656 317 6614ft 287kts
06-Jun-18 20:18 35.113162 -120.433479 317 4027ft 259kts
06-Jun-18 20:19 35.153337 -120.492571 306 3110ft 227kts
06-Jun-18 20:20 35.184853 -120.545706 307 2648ft 169kts
06-Jun-18 20:21 35.206659 -120.587520 307 1153ft 139kts
06-Jun-18 20:22 35.228363 -120.625191 307 369ft 137kts
06-Jun-18 20:23 35.239772 -120.643978 33 188ft 15kts
06-Jun-18 20:24 35.238869 -120.641350 353 188ft 5kts

Navigation Log

Ident Type
Flight plan parsing failed, navigation log unavailable